Time;durP1;ratioP1;P1;durP2;ratioP2;P2;SDS_P1;SDS_P2;PMS_P1;PMS_P2;Temp;Humidity;BMP_temperature;BMP_pressure;BME280_temperature;BME280_humidity;BME280_pressure;Samples;Min_cycle;Max_cycle;Signal;HPM_P1;HPM_P2
2023/12/27 00:01:29;;;;;;;3.80;0.80;;;4.60;99.90;;;;;;5093513;28;20510;-56
2023/12/27 00:03:55;;;;;;;4.33;1.00;;;4.60;99.90;;;;;;5094280;28;20471;-56
2023/12/27 00:06:21;;;;;;;2.80;0.77;;;4.60;99.90;;;;;;5094829;28;20087;-56
2023/12/27 00:08:46;;;;;;;4.70;0.80;;;4.70;99.90;;;;;;5094410;28;20040;-57
2023/12/27 00:11:17;;;;;;;5.40;1.13;;;4.70;99.90;;;;;;5094258;28;20485;-56
2023/12/27 00:13:43;;;;;;;3.97;0.82;;;4.70;99.90;;;;;;5094885;28;20123;-57
2023/12/27 00:16:09;;;;;;;3.10;0.97;;;4.70;99.90;;;;;;5094621;28;20181;-56
2023/12/27 00:18:35;;;;;;;7.28;1.20;;;4.60;99.90;;;;;;5094610;28;20051;-57
2023/12/27 00:21:01;;;;;;;4.43;0.90;;;4.70;99.90;;;;;;5094619;28;20040;-56
2023/12/27 00:23:28;;;;;;;6.30;0.90;;;4.60;99.90;;;;;;5094513;28;20055;-57
2023/12/27 00:25:54;;;;;;;9.20;1.25;;;4.70;99.90;;;;;;5094392;28;20052;-56
2023/12/27 00:28:20;;;;;;;4.70;0.97;;;4.70;99.90;;;;;;5094506;28;20056;-56
2023/12/27 00:30:48;;;;;;;6.83;1.20;;;4.70;99.90;;;;;;5094385;28;20388;-56
2023/12/27 00:33:15;;;;;;;4.68;1.00;;;4.60;99.90;;;;;;5094385;28;20044;-56
2023/12/27 00:35:41;;;;;;;8.07;1.20;;;4.60;99.90;;;;;;5094361;28;20074;-56
2023/12/27 00:38:06;;;;;;;6.20;1.20;;;4.60;99.90;;;;;;5094269;28;20048;-56
2023/12/27 00:40:32;;;;;;;6.37;1.30;;;4.60;99.90;;;;;;5094298;28;20039;-56
2023/12/27 00:42:58;;;;;;;6.20;1.33;;;4.60;99.90;;;;;;5094293;28;20543;-57
2023/12/27 00:45:24;;;;;;;4.07;1.00;;;4.60;99.90;;;;;;5093993;28;20071;-56
2023/12/27 00:47:50;;;;;;;6.70;1.30;;;4.60;99.90;;;;;;5094217;28;20074;-57
2023/12/27 00:50:16;;;;;;;6.15;1.08;;;4.60;99.90;;;;;;5093187;28;20410;-56
2023/12/27 00:52:41;;;;;;;4.03;0.87;;;4.50;99.90;;;;;;5094163;28;20040;-56
2023/12/27 00:55:07;;;;;;;6.93;1.13;;;4.60;99.90;;;;;;5094038;28;20036;-56
2023/12/27 00:57:33;;;;;;;4.00;1.07;;;4.50;99.90;;;;;;5093056;28;20127;-56
2023/12/27 00:59:59;;;;;;;5.13;1.10;;;4.50;99.90;;;;;;5093867;28;20048;-56
2023/12/27 01:02:25;;;;;;;6.00;1.20;;;4.50;99.90;;;;;;5093801;28;20097;-57
2023/12/27 01:04:52;;;;;;;5.83;1.40;;;4.50;99.90;;;;;;5093006;28;20079;-56
2023/12/27 01:07:20;;;;;;;6.07;1.05;;;4.50;99.90;;;;;;5093907;28;20101;-57
2023/12/27 01:09:46;;;;;;;5.40;1.50;;;4.40;99.90;;;;;;5093557;28;20054;-57
2023/12/27 01:12:11;;;;;;;4.70;1.40;;;4.40;99.90;;;;;;5093501;28;20047;-56
2023/12/27 01:14:37;;;;;;;5.37;1.30;;;4.30;99.90;;;;;;5093587;28;20075;-56
2023/12/27 01:17:03;;;;;;;7.10;1.73;;;4.40;99.90;;;;;;5093658;28;20093;-56
2023/12/27 01:19:28;;;;;;;9.30;1.70;;;4.40;99.90;;;;;;5093501;28;20055;-56
2023/12/27 01:21:54;;;;;;;7.53;0.90;;;4.40;99.90;;;;;;5096570;28;20158;-57
2023/12/27 01:24:20;;;;;;;3.93;1.07;;;4.30;99.90;;;;;;5097604;28;20044;-57
2023/12/27 01:26:45;;;;;;;4.07;0.83;;;4.30;99.90;;;;;;5097442;28;20493;-56
2023/12/27 01:29:11;;;;;;;4.33;1.00;;;4.40;99.90;;;;;;5096497;28;20073;-56
2023/12/27 01:31:37;;;;;;;2.60;0.70;;;4.30;99.90;;;;;;5097697;28;20126;-56
2023/12/27 01:34:02;;;;;;;4.67;1.00;;;4.40;99.90;;;;;;5098103;28;20379;-56
2023/12/27 01:36:28;;;;;;;4.53;1.07;;;4.30;99.90;;;;;;5097687;28;20464;-56
2023/12/27 01:38:54;;;;;;;3.60;0.80;;;4.30;99.90;;;;;;5097496;28;20505;-56
2023/12/27 01:41:19;;;;;;;7.13;1.20;;;4.30;99.90;;;;;;5097550;28;20407;-56
2023/12/27 01:43:45;;;;;;;8.87;1.00;;;4.20;99.90;;;;;;5097378;28;20059;-56
2023/12/27 01:46:11;;;;;;;2.50;0.77;;;4.20;99.90;;;;;;5097783;28;20105;-56
2023/12/27 01:48:39;;;;;;;5.53;1.45;;;4.30;99.90;;;;;;5097417;28;20380;-56
2023/12/27 01:51:05;;;;;;;8.75;1.17;;;4.20;99.90;;;;;;5097348;28;20178;-56
2023/12/27 01:53:30;;;;;;;7.17;1.53;;;4.20;99.90;;;;;;5097240;28;20122;-56
2023/12/27 01:55:56;;;;;;;9.50;1.10;;;4.30;99.90;;;;;;5097446;28;20105;-56
2023/12/27 01:58:22;;;;;;;3.37;0.90;;;4.30;99.90;;;;;;5097156;28;20395;-56
2023/12/27 02:00:48;;;;;;;5.93;0.97;;;4.20;99.90;;;;;;5096922;28;20048;-56
2023/12/27 02:03:14;;;;;;;3.55;1.00;;;4.20;99.90;;;;;;5097043;28;20052;-56
2023/12/27 02:05:41;;;;;;;4.70;0.97;;;4.20;99.90;;;;;;5096999;28;20047;-57
2023/12/27 02:08:09;;;;;;;4.40;0.90;;;4.30;99.90;;;;;;5097065;28;20086;-57
2023/12/27 02:10:35;;;;;;;4.10;1.00;;;4.30;99.90;;;;;;5095864;28;20047;-57
2023/12/27 02:13:05;;;;;;;4.40;1.17;;;4.20;99.90;;;;;;5096783;28;20130;-56
2023/12/27 02:15:30;;;;;;;6.95;1.08;;;4.20;99.90;;;;;;5096887;28;20039;-56
2023/12/27 02:17:57;;;;;;;3.30;1.00;;;4.20;99.90;;;;;;5097122;28;20051;-56
2023/12/27 02:20:24;;;;;;;7.60;1.20;;;4.20;99.90;;;;;;5096688;28;20055;-56
2023/12/27 02:22:50;;;;;;;;;;;4.20;99.90;;;;;;5097123;28;20044;-56
2023/12/27 02:25:16;;;;;;;5.22;1.00;;;4.20;99.90;;;;;;5096299;28;20264;-55
2023/12/27 02:27:42;;;;;;;2.38;0.93;;;4.10;99.90;;;;;;5096780;28;20067;-56
2023/12/27 02:30:15;;;;;;;5.60;1.10;;;4.20;99.90;;;;;;5097219;28;20044;-56
2023/12/27 02:32:41;;;;;;;7.70;1.40;;;4.20;99.90;;;;;;5095379;28;20048;-56
2023/12/27 02:35:07;;;;;;;3.60;0.77;;;4.20;99.90;;;;;;5096388;28;20054;-56
2023/12/27 02:37:33;;;;;;;2.40;0.77;;;4.10;99.90;;;;;;5096922;28;20044;-56
2023/12/27 02:40:01;;;;;;;2.73;0.80;;;4.10;99.90;;;;;;5096295;28;20525;-56
2023/12/27 02:42:27;;;;;;;4.88;0.75;;;4.10;99.90;;;;;;5096041;28;20055;-56
2023/12/27 02:44:52;;;;;;;3.70;0.80;;;4.00;99.90;;;;;;5096270;28;20070;-56
2023/12/27 02:47:18;;;;;;;5.33;1.20;;;4.00;99.90;;;;;;5094958;28;20101;-56
2023/12/27 02:49:43;;;;;;;4.23;1.10;;;3.90;99.90;;;;;;5096202;28;20044;-56
2023/12/27 02:52:09;;;;;;;2.63;0.60;;;3.80;99.90;;;;;;5094962;28;20446;-56
2023/12/27 02:54:35;;;;;;;3.90;1.20;;;3.70;99.90;;;;;;5096037;28;20040;-56
2023/12/27 02:57:00;;;;;;;5.53;0.90;;;3.60;99.90;;;;;;5095784;28;20055;-56
2023/12/27 02:59:26;;;;;;;4.10;0.80;;;3.60;99.90;;;;;;5095787;28;20127;-56
2023/12/27 03:01:52;;;;;;;2.87;0.80;;;3.60;99.90;;;;;;5094772;28;20090;-57
2023/12/27 03:04:18;;;;;;;3.78;0.80;;;3.50;99.90;;;;;;5095793;28;20040;-57
2023/12/27 03:06:44;;;;;;;6.07;1.10;;;3.50;99.90;;;;;;5095988;28;20055;-56
2023/12/27 03:09:10;;;;;;;3.83;0.80;;;3.60;99.90;;;;;;5095645;28;20086;-56
2023/12/27 03:11:35;;;;;;;6.10;0.70;;;3.50;99.90;;;;;;5095486;28;20439;-56
2023/12/27 03:14:01;;;;;;;3.07;0.70;;;3.50;99.90;;;;;;5095748;28;20153;-56
2023/12/27 03:16:28;;;;;;;4.60;0.98;;;3.40;99.90;;;;;;5095929;28;20134;-57
2023/12/27 03:18:54;;;;;;;4.47;1.17;;;3.40;99.90;;;;;;5095522;28;20101;-56
2023/12/27 03:21:20;;;;;;;2.73;0.70;;;3.30;99.90;;;;;;5095421;28;20403;-56
2023/12/27 03:23:46;;;;;;;3.57;0.70;;;3.20;99.90;;;;;;5095182;28;20048;-56
2023/12/27 03:26:12;;;;;;;5.05;0.80;;;3.20;99.90;;;;;;5094845;28;20048;-56
2023/12/27 03:28:38;;;;;;;3.37;1.13;;;3.10;99.90;;;;;;5095420;28;20048;-57
2023/12/27 03:31:04;;;;;;;3.97;0.73;;;3.10;99.90;;;;;;5093943;28;20391;-56
2023/12/27 03:33:29;;;;;;;3.30;0.90;;;3.00;99.90;;;;;;5095131;28;20055;-56
2023/12/27 03:35:55;;;;;;;4.67;2.00;;;3.00;99.90;;;;;;5095236;28;20507;-56
2023/12/27 03:38:20;;;;;;;3.97;1.40;;;3.00;99.90;;;;;;5095048;28;20051;-56
2023/12/27 03:40:46;;;;;;;5.27;1.13;;;3.00;99.90;;;;;;5094905;28;20047;-56
2023/12/27 03:43:12;;;;;;;2.00;0.90;;;3.00;99.90;;;;;;5094997;28;20044;-56
2023/12/27 03:45:38;;;;;;;2.97;0.80;;;3.00;99.90;;;;;;5094991;28;20040;-56
2023/12/27 03:48:04;;;;;;;3.53;0.82;;;3.00;99.90;;;;;;5095147;28;20117;-56
2023/12/27 03:50:30;;;;;;;5.63;1.13;;;3.00;99.90;;;;;;5095173;28;20083;-56
2023/12/27 03:52:56;;;;;;;2.73;1.27;;;3.00;99.90;;;;;;5094973;28;20324;-56
2023/12/27 03:55:25;;;;;;;5.37;1.70;;;3.10;99.90;;;;;;5094853;28;20036;-56
2023/12/27 03:57:51;;;;;;;5.90;1.40;;;3.00;99.90;;;;;;5094873;28;20054;-56
2023/12/27 04:00:18;;;;;;;8.20;1.50;;;3.00;99.90;;;;;;5094838;28;20048;-56
2023/12/27 04:02:43;;;;;;;2.73;0.93;;;3.00;99.90;;;;;;5094866;28;20124;-56
2023/12/27 04:05:09;;;;;;;2.90;0.97;;;2.90;99.90;;;;;;5094838;28;20051;-56
2023/12/27 04:07:35;;;;;;;4.43;0.90;;;2.90;99.90;;;;;;5094444;28;20051;-56
2023/12/27 04:10:01;;;;;;;3.97;1.10;;;2.80;99.90;;;;;;5094326;28;20082;-56
2023/12/27 04:12:27;;;;;;;10.47;1.60;;;2.80;99.90;;;;;;5094436;28;20083;-56
2023/12/27 04:14:53;;;;;;;6.90;1.23;;;2.80;99.90;;;;;;5094500;28;20044;-56
2023/12/27 04:17:18;;;;;;;5.30;2.03;;;2.70;99.90;;;;;;5094398;28;20327;-56
2023/12/27 04:19:44;;;;;;;4.67;1.00;;;2.70;99.90;;;;;;5094442;28;20084;-56
2023/12/27 04:22:10;;;;;;;6.13;1.30;;;2.70;99.90;;;;;;5094297;28;20051;-56
2023/12/27 04:24:35;;;;;;;3.15;1.23;;;2.70;99.90;;;;;;5094305;28;20040;-56
2023/12/27 04:27:01;;;;;;;1.93;0.63;;;2.70;99.90;;;;;;5093178;28;20055;-55
2023/12/27 04:29:27;;;;;;;6.50;1.02;;;2.80;99.90;;;;;;5094637;28;20056;-56
2023/12/27 04:31:52;;;;;;;3.00;0.80;;;2.90;99.90;;;;;;5094475;28;20044;-55
2023/12/27 04:34:18;;;;;;;4.40;1.33;;;2.80;99.90;;;;;;5094352;28;20411;-56
2023/12/27 04:36:44;;;;;;;2.87;0.80;;;2.90;99.90;;;;;;5076315;28;20566;-56
2023/12/27 04:39:09;;;;;;;5.85;1.23;;;2.90;99.90;;;;;;5093005;28;20044;-56
2023/12/27 04:41:35;;;;;;;5.23;1.10;;;3.00;99.90;;;;;;5094042;28;20050;-56
2023/12/27 04:44:01;;;;;;;5.47;0.90;;;3.00;99.90;;;;;;5093889;28;20075;-56
2023/12/27 04:46:26;;;;;;;5.80;0.97;;;3.00;99.90;;;;;;5093839;28;20083;-55
2023/12/27 04:48:52;;;;;;;4.97;1.67;;;3.10;99.90;;;;;;5094022;28;20048;-56
2023/12/27 04:51:18;;;;;;;3.80;1.00;;;3.00;99.90;;;;;;5092665;28;20487;-56
2023/12/27 04:53:44;;;;;;;4.17;1.00;;;3.00;99.90;;;;;;5093642;28;20044;-56
2023/12/27 04:56:09;;;;;;;4.13;0.97;;;2.90;99.90;;;;;;5093288;28;20083;-56
2023/12/27 04:58:36;;;;;;;2.97;0.80;;;2.90;99.90;;;;;;5093933;28;20089;-55
2023/12/27 05:01:06;;;;;;;5.68;1.05;;;2.90;99.90;;;;;;5093789;28;20044;-56
2023/12/27 05:03:35;;;;;;;6.60;1.20;;;2.90;99.90;;;;;;5093539;28;20048;-56
2023/12/27 05:06:08;;;;;;;5.05;1.05;;;2.80;99.90;;;;;;5093471;28;20097;-56
2023/12/27 05:08:34;;;;;;;4.78;1.10;;;2.90;99.90;;;;;;5093356;28;20131;-56
2023/12/27 05:11:00;;;;;;;2.85;0.80;;;2.80;99.90;;;;;;5092799;28;20059;-56
2023/12/27 05:13:26;;;;;;;2.67;0.83;;;2.80;99.90;;;;;;5093643;28;20044;-56
2023/12/27 05:15:52;;;;;;;2.67;0.80;;;2.80;99.90;;;;;;5093418;28;20391;-56
2023/12/27 05:18:17;;;;;;;5.17;1.00;;;2.80;99.90;;;;;;5092598;28;20105;-55
2023/12/27 05:20:43;;;;;;;5.13;0.80;;;2.80;99.90;;;;;;5093303;28;20044;-55
2023/12/27 05:23:09;;;;;;;2.80;1.03;;;2.80;99.90;;;;;;5093521;28;20097;-56
2023/12/27 05:25:35;;;;;;;4.80;0.77;;;2.80;99.90;;;;;;5093486;28;20040;-55
2023/12/27 05:28:01;;;;;;;3.88;0.90;;;2.80;99.90;;;;;;5093395;28;20421;-56
2023/12/27 05:30:26;;;;;;;2.80;0.80;;;2.80;99.90;;;;;;5075387;28;20063;-56
2023/12/27 05:32:52;;;;;;;3.50;1.08;;;2.80;99.90;;;;;;5093253;28;20044;-56
2023/12/27 05:35:18;;;;;;;5.72;1.35;;;2.80;99.90;;;;;;5092372;28;20058;-56
2023/12/27 05:37:43;;;;;;;5.20;1.07;;;2.90;99.90;;;;;;5093380;28;20090;-56
2023/12/27 05:40:09;;;;;;;3.10;1.00;;;2.80;99.90;;;;;;5093418;28;20040;-56
2023/12/27 05:42:35;;;;;;;4.87;1.13;;;2.90;99.90;;;;;;5093299;28;20051;-56
2023/12/27 05:45:01;;;;;;;3.27;0.80;;;2.80;99.90;;;;;;5093231;28;20048;-56
2023/12/27 05:47:26;;;;;;;3.47;1.07;;;2.90;99.90;;;;;;5093563;28;20039;-55
2023/12/27 05:49:52;;;;;;;3.33;1.00;;;2.90;99.90;;;;;;5093285;28;20105;-56
2023/12/27 05:52:18;;;;;;;5.13;1.10;;;2.90;99.90;;;;;;5093294;28;20059;-56
2023/12/27 05:54:44;;;;;;;3.77;0.80;;;2.90;99.90;;;;;;5093517;28;20044;-56
2023/12/27 05:57:09;;;;;;;3.83;0.83;;;2.90;99.90;;;;;;5093168;28;20059;-56
2023/12/27 05:59:35;;;;;;;4.25;1.10;;;2.90;99.90;;;;;;5093299;28;20073;-55
2023/12/27 06:02:01;;;;;;;4.10;0.90;;;2.90;99.90;;;;;;5093266;28;20119;-55
2023/12/27 06:04:27;;;;;;;3.17;0.90;;;2.80;99.90;;;;;;5092029;28;20540;-56
2023/12/27 06:06:53;;;;;;;5.45;1.13;;;2.80;99.90;;;;;;5094057;28;20054;-56
2023/12/27 06:09:20;;;;;;;4.83;1.13;;;2.80;99.90;;;;;;5096978;28;20409;-56
2023/12/27 06:11:46;;;;;;;5.38;1.33;;;2.80;99.90;;;;;;5097158;28;20128;-56
2023/12/27 06:14:12;;;;;;;5.45;1.40;;;2.80;99.90;;;;;;5096142;28;20044;-56
2023/12/27 06:16:38;;;;;;;6.45;1.25;;;2.80;99.90;;;;;;5096679;28;20154;-55
2023/12/27 06:19:04;;;;;;;5.53;1.30;;;2.80;99.90;;;;;;5096696;28;20044;-56
2023/12/27 06:21:30;;;;;;;4.00;1.30;;;2.90;99.90;;;;;;5096644;28;20479;-55
2023/12/27 06:23:55;;;;;;;7.70;1.97;;;2.90;99.90;;;;;;5096675;28;20466;-56
2023/12/27 06:26:22;;;;;;;4.13;1.10;;;2.90;99.90;;;;;;5096842;28;20388;-55
2023/12/27 06:28:48;;;;;;;4.82;1.23;;;2.90;99.90;;;;;;5096837;28;20052;-56
2023/12/27 06:31:13;;;;;;;5.95;1.30;;;2.90;99.90;;;;;;5096484;28;20036;-56
2023/12/27 06:33:39;;;;;;;5.53;1.27;;;2.90;99.90;;;;;;5096562;28;20051;-54
2023/12/27 06:36:06;;;;;;;6.20;1.47;;;2.90;99.90;;;;;;5096370;28;20128;-56
2023/12/27 06:38:32;;;;;;;4.28;1.50;;;2.90;99.90;;;;;;5096441;28;20082;-56
2023/12/27 06:41:00;;;;;;;5.60;1.35;;;2.90;99.90;;;;;;5096578;28;20438;-56
2023/12/27 06:43:26;;;;;;;5.32;1.30;;;3.00;99.90;;;;;;5096303;28;20048;-55
2023/12/27 06:45:52;;;;;;;4.57;1.67;;;3.00;99.90;;;;;;5096252;28;20044;-55
2023/12/27 06:48:18;;;;;;;3.93;1.23;;;3.00;99.90;;;;;;5096014;28;20055;-55
2023/12/27 06:50:44;;;;;;;6.55;1.52;;;3.00;99.90;;;;;;5095846;28;20088;-56
2023/12/27 06:53:10;;;;;;;6.18;1.65;;;3.00;99.90;;;;;;5096329;28;20047;-56
2023/12/27 06:55:36;;;;;;;4.47;1.45;;;3.00;99.90;;;;;;5096184;28;20040;-56
2023/12/27 06:58:03;;;;;;;6.77;1.10;;;3.00;99.90;;;;;;5096055;28;20384;-56
2023/12/27 07:00:28;;;;;;;4.80;1.33;;;3.10;99.90;;;;;;5096088;28;20242;-55
2023/12/27 07:02:54;;;;;;;2.67;1.13;;;3.00;99.90;;;;;;5094499;28;20531;-55
2023/12/27 07:05:20;;;;;;;4.88;1.60;;;3.00;99.90;;;;;;5095702;28;20105;-55
2023/12/27 07:07:46;;;;;;;4.03;1.47;;;3.10;99.90;;;;;;5095927;28;20048;-55
2023/12/27 07:10:12;;;;;;;6.03;1.58;;;3.10;99.90;;;;;;5095760;28;20097;-55
2023/12/27 07:12:38;;;;;;;5.78;1.98;;;3.00;99.90;;;;;;5095805;28;20048;-55
2023/12/27 07:15:08;;;;;;;4.75;1.45;;;3.10;99.90;;;;;;5095583;28;20044;-55
2023/12/27 07:17:34;;;;;;;4.88;1.52;;;3.00;99.90;;;;;;5095382;28;20084;-55
2023/12/27 07:20:00;;;;;;;5.07;1.45;;;3.00;99.90;;;;;;5095112;28;20126;-55
2023/12/27 07:22:26;;;;;;;8.15;1.40;;;3.00;99.90;;;;;;5095569;28;20048;-55
2023/12/27 07:24:52;;;;;;;4.43;1.37;;;2.90;99.90;;;;;;5095419;28;20481;-55
2023/12/27 07:27:18;;;;;;;7.15;2.00;;;2.90;99.90;;;;;;5095344;28;20286;-55
2023/12/27 07:29:44;;;;;;;5.53;1.90;;;2.80;99.90;;;;;;5095353;28;20048;-55
2023/12/27 07:32:09;;;;;;;7.47;1.80;;;2.90;99.90;;;;;;5095340;28;20052;-54
2023/12/27 07:34:35;;;;;;;8.20;2.10;;;2.90;99.90;;;;;;5095491;28;20044;-55
2023/12/27 07:37:01;;;;;;;8.45;2.20;;;2.90;99.90;;;;;;5095841;28;20491;-55
2023/12/27 07:39:27;;;;;;;5.28;2.22;;;2.90;99.90;;;;;;5095421;28;20058;-55
2023/12/27 07:41:52;;;;;;;6.77;1.60;;;3.00;99.90;;;;;;5095244;28;20471;-55
2023/12/27 07:44:20;;;;;;;7.20;1.97;;;3.00;99.90;;;;;;5095179;28;20040;-55
2023/12/27 07:46:46;;;;;;;6.97;2.30;;;3.00;99.90;;;;;;5095047;28;20410;-54
2023/12/27 07:49:11;;;;;;;7.28;1.80;;;3.10;99.90;;;;;;5094829;28;20044;-55
2023/12/27 07:51:37;;;;;;;5.67;1.70;;;3.10;99.90;;;;;;5095345;28;20071;-55
2023/12/27 07:54:03;;;;;;;3.23;1.43;;;3.10;99.90;;;;;;5095062;28;20044;-55
2023/12/27 07:56:29;;;;;;;5.55;2.13;;;3.20;99.90;;;;;;5094950;28;20127;-54
2023/12/27 07:58:55;;;;;;;4.83;1.43;;;3.20;99.90;;;;;;5094883;28;20076;-54
2023/12/27 08:01:21;;;;;;;9.45;1.60;;;3.20;99.90;;;;;;5094711;28;20043;-55
2023/12/27 08:03:46;;;;;;;4.33;1.67;;;3.30;99.90;;;;;;5094918;28;20536;-54
2023/12/27 08:06:12;;;;;;;6.40;1.60;;;3.30;99.90;;;;;;5094791;28;20087;-55
2023/12/27 08:08:38;;;;;;;8.90;2.20;;;3.30;99.90;;;;;;5094706;28;20044;-55
2023/12/27 08:11:04;;;;;;;6.17;2.23;;;3.30;99.90;;;;;;5095106;28;20048;-55
2023/12/27 08:13:34;;;;;;;9.18;2.70;;;3.40;99.90;;;;;;5094610;28;20047;-54
2023/12/27 08:16:00;;;;;;;11.45;4.78;;;3.40;99.90;;;;;;5094451;28;20040;-55
2023/12/27 08:18:26;;;;;;;16.35;6.40;;;3.40;99.90;;;;;;5094913;28;20042;-53
2023/12/27 08:20:53;;;;;;;19.40;10.23;;;3.40;99.90;;;;;;5094638;28;20059;-54
2023/12/27 08:23:19;;;;;;;27.67;12.98;;;3.40;99.90;;;;;;5094431;28;20086;-55
2023/12/27 08:25:45;;;;;;;21.58;10.73;;;3.50;99.90;;;;;;5094683;28;20075;-54
2023/12/27 08:28:11;;;;;;;18.75;9.50;;;3.50;99.90;;;;;;5094479;28;20434;-55
2023/12/27 08:30:38;;;;;;;17.50;9.27;;;3.60;99.90;;;;;;5093426;28;20101;-55
2023/12/27 08:33:07;;;;;;;14.18;8.02;;;3.50;99.90;;;;;;5094239;28;20066;-53
2023/12/27 08:35:36;;;;;;;12.13;5.32;;;3.60;99.90;;;;;;5094365;28;20139;-55
2023/12/27 08:38:03;;;;;;;8.98;3.60;;;3.60;99.90;;;;;;5094226;28;20487;-54
2023/12/27 08:40:28;;;;;;;8.13;2.75;;;3.60;99.90;;;;;;5094141;28;20231;-54
2023/12/27 08:42:54;;;;;;;8.20;1.93;;;3.60;99.90;;;;;;5093003;28;20550;-54
2023/12/27 08:45:20;;;;;;;7.47;2.03;;;3.70;99.90;;;;;;5093800;28;20075;-55
2023/12/27 08:47:46;;;;;;;6.23;1.67;;;3.70;99.90;;;;;;5094166;28;20044;-54
2023/12/27 08:50:12;;;;;;;6.07;1.50;;;3.70;99.90;;;;;;5092851;28;20482;-55
2023/12/27 08:52:39;;;;;;;6.07;1.40;;;3.80;99.90;;;;;;5094070;28;20048;-55
2023/12/27 08:55:12;;;;;;;9.18;1.90;;;3.80;99.90;;;;;;5093923;28;20124;-55
2023/12/27 08:57:38;;;;;;;6.70;1.50;;;3.80;99.90;;;;;;5092802;28;20052;-54
2023/12/27 09:00:10;;;;;;;6.82;1.63;;;3.80;99.90;;;;;;5093857;28;20074;-55
2023/12/27 09:02:37;;;;;;;5.00;1.30;;;3.90;99.90;;;;;;5093804;28;20054;-54
2023/12/27 09:05:04;;;;;;;7.18;2.08;;;3.90;99.90;;;;;;5094161;28;20048;-55
2023/12/27 09:07:31;;;;;;;;;;;3.90;99.90;;;;;;5094087;28;20075;-54
2023/12/27 09:09:57;;;;;;;3.90;1.58;;;3.90;99.90;;;;;;5093606;28;20446;-54
2023/12/27 09:12:22;;;;;;;9.15;2.00;;;3.90;99.90;;;;;;5093519;28;20127;-55
2023/12/27 09:14:48;;;;;;;5.85;1.40;;;3.90;99.90;;;;;;5093782;28;20178;-54
2023/12/27 09:17:15;;;;;;;6.55;1.60;;;3.90;99.90;;;;;;5093667;28;20089;-54
2023/12/27 09:19:44;;;;;;;4.50;1.40;;;4.00;99.90;;;;;;5093708;28;20514;-55
2023/12/27 09:22:10;;;;;;;4.25;1.60;;;4.00;99.90;;;;;;5093541;28;20040;-54
2023/12/27 09:24:36;;;;;;;6.00;1.35;;;4.00;99.90;;;;;;5093450;28;20063;-55
2023/12/27 09:27:03;;;;;;;9.45;1.80;;;4.00;99.90;;;;;;5093587;28;20063;-50
2023/12/27 09:29:30;;;;;;;6.68;1.40;;;4.00;99.90;;;;;;5093865;28;20056;-55
2023/12/27 09:31:56;;;;;;;4.03;1.20;;;4.00;99.90;;;;;;5093582;28;20097;-55
2023/12/27 09:34:22;;;;;;;5.20;1.63;;;4.00;99.90;;;;;;5093844;28;20484;-54
2023/12/27 09:36:47;;;;;;;9.70;1.67;;;4.00;99.90;;;;;;5093467;28;20388;-54
2023/12/27 09:39:13;;;;;;;7.40;1.50;;;4.00;99.90;;;;;;5093451;28;20131;-55
2023/12/27 09:41:43;;;;;;;4.13;1.23;;;4.00;99.90;;;;;;5092941;28;20048;-54
2023/12/27 09:44:13;;;;;;;7.80;1.63;;;4.10;99.90;;;;;;5097456;28;20048;-55
2023/12/27 09:46:39;;;;;;;6.75;1.55;;;4.10;99.90;;;;;;5097400;28;20063;-56
2023/12/27 09:49:08;;;;;;;5.43;1.48;;;4.10;99.90;;;;;;5097478;28;20040;-55
2023/12/27 09:51:35;;;;;;;4.65;1.60;;;4.10;99.90;;;;;;5097502;28;20091;-55
2023/12/27 09:54:01;;;;;;;6.60;1.45;;;4.10;99.90;;;;;;5097240;28;20466;-55
2023/12/27 09:56:30;;;;;;;7.35;1.85;;;4.10;99.90;;;;;;5097204;28;20135;-55
2023/12/27 09:59:01;;;;;;;5.15;1.60;;;4.10;99.90;;;;;;5097369;28;20044;-55
2023/12/27 10:01:31;;;;;;;4.57;1.80;;;4.20;99.90;;;;;;5097262;28;20055;-55
2023/12/27 10:04:32;;;;;;;8.20;2.53;;;4.20;99.90;;;;;;5079065;28;20446;-55
2023/12/27 10:06:58;;;;;;;3.88;1.45;;;4.20;99.90;;;;;;5087807;28;20070;-55
2023/12/27 10:09:24;;;;;;;6.88;1.65;;;4.20;99.90;;;;;;5097118;28;20051;-55
2023/12/27 10:11:50;;;;;;;4.60;1.57;;;4.20;99.90;;;;;;5097067;28;20039;-55
2023/12/27 10:14:17;;;;;;;7.27;1.80;;;4.20;99.90;;;;;;5097079;28;20075;-53
2023/12/27 10:16:42;;;;;;;2.88;1.30;;;4.30;99.90;;;;;;5096751;28;20048;-54
2023/12/27 10:19:40;;;;;;;9.27;1.77;;;4.30;99.90;;;;;;5096620;28;20052;-54
2023/12/27 10:22:06;;;;;;;7.47;1.70;;;4.30;99.90;;;;;;5097228;28;20044;-56
2023/12/27 10:24:34;;;;;;;5.53;1.30;;;4.30;99.90;;;;;;5096753;28;20043;-54
2023/12/27 10:27:04;;;;;;;6.57;1.15;;;4.30;99.90;;;;;;5096770;28;20290;-53
2023/12/27 10:29:32;;;;;;;4.93;1.20;;;4.40;99.90;;;;;;5096526;28;20048;-54
2023/12/27 10:32:00;;;;;;;4.15;1.27;;;4.40;99.90;;;;;;5096375;28;20044;-54
2023/12/27 10:34:27;;;;;;;7.32;1.25;;;4.40;99.90;;;;;;5096567;28;20040;-54
2023/12/27 10:36:57;;;;;;;;;;;4.40;99.90;;;;;;5096899;28;20036;-54
2023/12/27 10:39:23;;;;;;;4.72;1.13;;;4.50;99.90;;;;;;5096584;28;20386;-54
2023/12/27 10:41:51;;;;;;;4.07;1.23;;;4.50;99.90;;;;;;5096726;28;20048;-54
2023/12/27 10:44:18;;;;;;;3.95;1.08;;;4.50;99.90;;;;;;5096150;28;20290;-54
2023/12/27 10:46:44;;;;;;;7.28;1.85;;;4.60;99.90;;;;;;5095099;28;20131;-53
2023/12/27 10:49:13;;;;;;;9.65;2.00;;;4.70;99.90;;;;;;5095842;28;20185;-55
2023/12/27 10:51:40;;;;;;;6.75;1.42;;;4.70;99.90;;;;;;5096158;28;20044;-54
2023/12/27 10:54:07;;;;;;;7.85;1.83;;;4.70;99.90;;;;;;5095489;28;20093;-53
2023/12/27 10:56:37;;;;;;;5.32;1.80;;;4.80;99.90;;;;;;5096204;28;20043;-54
2023/12/27 10:59:07;;;;;;;3.50;1.10;;;4.80;99.90;;;;;;5096106;28;20055;-55
2023/12/27 11:01:34;;;;;;;5.53;1.55;;;4.90;99.90;;;;;;5096238;28;20040;-50
2023/12/27 11:04:09;;;;;;;7.30;1.52;;;4.90;99.90;;;;;;5095957;28;20044;-53
2023/12/27 11:06:37;;;;;;;4.72;1.60;;;4.90;99.90;;;;;;5096276;28;20451;-52
2023/12/27 11:09:07;;;;;;;7.60;1.80;;;4.90;99.90;;;;;;5095927;28;20097;-50
2023/12/27 11:11:39;;;;;;;6.78;1.63;;;5.00;99.90;;;;;;5095833;28;20044;-51
2023/12/27 11:14:07;;;;;;;9.77;3.05;;;5.00;99.90;;;;;;5096378;28;20123;-52
2023/12/27 11:16:35;;;;;;;3.67;1.50;;;5.00;99.90;;;;;;5095886;28;20130;-50
2023/12/27 11:19:03;;;;;;;7.05;2.53;;;5.00;99.90;;;;;;5095591;28;20055;-51
2023/12/27 11:21:29;;;;;;;5.85;2.40;;;5.10;99.90;;;;;;5094906;28;20036;-53
2023/12/27 11:23:55;;;;;;;7.85;2.40;;;5.10;99.90;;;;;;5095356;28;20056;-53
2023/12/27 11:26:21;;;;;;;6.00;2.53;;;5.10;99.90;;;;;;5095656;28;20112;-50
2023/12/27 11:28:47;;;;;;;8.25;2.88;;;5.20;99.90;;;;;;5095610;28;20456;-52
2023/12/27 11:31:13;;;;;;;7.20;2.30;;;5.20;99.90;;;;;;5095848;28;20134;-50
2023/12/27 11:33:42;;;;;;;7.43;2.70;;;5.20;99.90;;;;;;5095545;28;20105;-52
2023/12/27 11:36:08;;;;;;;9.80;3.03;;;5.20;99.90;;;;;;5095325;28;20044;-50
2023/12/27 11:38:36;;;;;;;9.70;2.60;;;5.20;99.90;;;;;;5095244;28;20079;-53
2023/12/27 11:41:02;;;;;;;9.65;3.35;;;5.20;99.90;;;;;;5095766;28;20063;-49
2023/12/27 11:43:51;;;;;;;9.88;2.50;;;5.20;99.90;;;;;;5095320;28;20182;-50
2023/12/27 11:46:25;;;;;;;6.80;2.55;;;5.30;99.90;;;;;;5095399;28;20411;-49
2023/12/27 11:48:51;;;;;;;8.23;2.80;;;5.20;99.90;;;;;;5095172;28;20392;-51
2023/12/27 11:51:27;;;;;;;9.70;3.50;;;5.30;99.90;;;;;;5095032;28;20054;-49
2023/12/27 11:53:56;;;;;;;9.90;3.67;;;5.20;99.90;;;;;;5095071;28;20052;-52
2023/12/27 11:56:22;;;;;;;10.00;3.38;;;5.20;99.90;;;;;;5094981;28;20146;-49
2023/12/27 11:58:49;;;;;;;10.47;2.90;;;5.20;99.90;;;;;;5093822;28;20127;-56
2023/12/27 12:01:26;;;;;;;8.18;2.88;;;5.30;99.90;;;;;;5094882;28;20282;-55
2023/12/27 12:03:58;;;;;;;8.80;3.25;;;5.20;99.90;;;;;;5095246;28;20097;-57
2023/12/27 12:06:44;;;;;;;9.35;3.33;;;5.30;99.90;;;;;;5094763;28;20127;-58
2023/12/27 12:09:11;;;;;;;7.15;3.28;;;5.30;99.90;;;;;;5094865;28;20048;-58
2023/12/27 12:11:36;;;;;;;10.73;3.72;;;5.30;99.90;;;;;;5094725;28;20101;-58
2023/12/27 12:14:04;;;;;;;12.83;3.90;;;5.30;99.90;;;;;;5094736;28;20048;-58
2023/12/27 12:16:32;;;;;;;9.05;3.83;;;5.20;99.90;;;;;;5095101;28;20102;-58
2023/12/27 12:19:03;;;;;;;9.40;3.72;;;5.30;99.90;;;;;;5094657;28;20441;-59
2023/12/27 12:21:30;;;;;;;16.25;4.18;;;5.30;99.90;;;;;;5094605;28;20047;-58
2023/12/27 12:23:55;;;;;;;9.10;3.33;;;5.20;99.90;;;;;;5094362;28;20056;-58
2023/12/27 12:26:21;;;;;;;8.90;3.93;;;5.30;99.90;;;;;;5094350;28;20060;-58
2023/12/27 12:28:55;;;;;;;10.97;4.03;;;5.20;99.90;;;;;;5093371;28;20058;-58
2023/12/27 12:31:20;;;;;;;12.65;3.63;;;5.20;99.90;;;;;;5094836;28;20055;-58
2023/12/27 12:33:46;;;;;;;13.70;4.00;;;5.20;99.90;;;;;;5093270;28;20407;-59
2023/12/27 12:36:12;;;;;;;10.23;4.23;;;5.20;99.90;;;;;;5094495;28;20039;-58
2023/12/27 12:38:38;;;;;;;8.43;3.60;;;5.20;99.90;;;;;;5094443;28;20063;-58
2023/12/27 12:41:04;;;;;;;11.13;4.85;;;5.20;99.90;;;;;;5094313;28;20051;-58
2023/12/27 12:43:30;;;;;;;13.30;4.57;;;5.20;99.90;;;;;;5094724;28;20407;-58
2023/12/27 12:45:59;;;;;;;10.33;4.00;;;5.20;99.90;;;;;;5094204;28;20040;-58
2023/12/27 12:48:28;;;;;;;9.38;4.03;;;5.20;99.90;;;;;;5094165;28;20056;-58
2023/12/27 12:51:16;;;;;;;13.05;4.18;;;5.20;99.90;;;;;;5093976;28;20105;-58
2023/12/27 12:53:43;;;;;;;9.38;4.07;;;5.20;99.90;;;;;;5093880;28;20071;-58
2023/12/27 12:56:10;;;;;;;;;;;5.20;99.90;;;;;;5094461;28;20044;-58